TimeCST,TemperatureF,Dew PointF,Humidity,Sea Level PressureIn,VisibilityMPH,Wind Direction,Wind SpeedMPH,Gust SpeedMPH,PrecipitationIn,Events,Conditions,WindDirDegrees,DateUTC
12:08 AM,48.0,29.1,48,-9999,-9999.0,WSW,5.8,-,N/A,,Unknown,240,2012-11-06 06:08:00
12:28 AM,48.0,27.1,44,-9999,-9999.0,WSW,8.1,-,N/A,,Unknown,250,2012-11-06 06:28:00
12:48 AM,48.0,27.1,44,-9999,-9999.0,West,6.9,-,N/A,,Unknown,270,2012-11-06 06:48:00
1:08 AM,48.0,27.1,44,-9999,-9999.0,West,6.9,-,N/A,,Unknown,270,2012-11-06 07:08:00
1:28 AM,46.0,27.1,48,-9999,-9999.0,West,9.2,-,N/A,,Unknown,280,2012-11-06 07:28:00
1:48 AM,46.0,27.1,48,-9999,-9999.0,West,6.9,-,N/A,,Unknown,270,2012-11-06 07:48:00
2:08 AM,46.0,27.1,48,-9999,-9999.0,West,8.1,-,N/A,,Unknown,280,2012-11-06 08:08:00
2:28 AM,46.0,27.1,48,-9999,-9999.0,West,6.9,-,N/A,,Unknown,270,2012-11-06 08:28:00
2:48 AM,46.9,27.1,46,-9999,-9999.0,West,8.1,-,N/A,,Unknown,270,2012-11-06 08:48:00
3:08 AM,46.0,27.1,48,-9999,-9999.0,West,8.1,-,N/A,,Unknown,260,2012-11-06 09:08:00
3:28 AM,46.9,28.0,48,-9999,-9999.0,West,6.9,-,N/A,,Unknown,270,2012-11-06 09:28:00
3:48 AM,48.0,27.1,44,-9999,-9999.0,West,10.4,-,N/A,,Unknown,260,2012-11-06 09:48:00
4:08 AM,48.0,27.1,44,-9999,-9999.0,West,9.2,-,N/A,,Unknown,260,2012-11-06 10:08:00
4:28 AM,46.9,27.1,46,-9999,-9999.0,West,10.4,-,N/A,,Unknown,260,2012-11-06 10:28:00
4:48 AM,48.0,27.1,44,-9999,-9999.0,West,9.2,-,N/A,,Unknown,260,2012-11-06 10:48:00
5:08 AM,48.0,27.1,44,-9999,-9999.0,West,8.1,-,N/A,,Unknown,270,2012-11-06 11:08:00
5:28 AM,46.9,27.1,46,-9999,-9999.0,West,8.1,-,N/A,,Unknown,280,2012-11-06 11:28:00
5:48 AM,46.9,26.1,44,-9999,-9999.0,West,9.2,-,N/A,,Unknown,280,2012-11-06 11:48:00
6:08 AM,46.9,26.1,44,-9999,-9999.0,West,9.2,-,N/A,,Unknown,280,2012-11-06 12:08:00
6:28 AM,46.9,26.1,44,-9999,-9999.0,West,8.1,-,N/A,,Unknown,280,2012-11-06 12:28:00
6:48 AM,48.0,27.1,44,-9999,-9999.0,West,6.9,-,N/A,,Unknown,280,2012-11-06 12:48:00
7:08 AM,45.0,26.1,48,-9999,-9999.0,West,8.1,-,N/A,,Unknown,270,2012-11-06 13:08:00
7:28 AM,45.0,26.1,48,-9999,-9999.0,West,6.9,-,N/A,,Unknown,270,2012-11-06 13:28:00
7:48 AM,45.0,26.1,48,-9999,-9999.0,West,9.2,-,N/A,,Unknown,270,2012-11-06 13:48:00
8:08 AM,48.0,26.1,42,-9999,-9999.0,West,11.5,-,N/A,,Unknown,280,2012-11-06 14:08:00
8:28 AM,48.9,27.1,43,-9999,-9999.0,West,11.5,-,N/A,,Unknown,280,2012-11-06 14:28:00
8:48 AM,52.0,27.1,38,-9999,-9999.0,NW,9.2,-,N/A,,Unknown,310,2012-11-06 14:48:00
9:08 AM,54.0,29.1,39,-9999,-9999.0,NNW,9.2,-,N/A,,Unknown,340,2012-11-06 15:08:00
9:28 AM,57.0,30.0,36,-9999,-9999.0,NNW,9.2,-,N/A,,Unknown,340,2012-11-06 15:28:00
9:48 AM,57.9,32.2,38,-9999,-9999.0,North,11.5,-,N/A,,Unknown,360,2012-11-06 15:48:00
10:08 AM,57.9,33.1,39,-9999,-9999.0,North,16.1,-,N/A,,Unknown,350,2012-11-06 16:08:00
10:28 AM,59.0,35.1,41,-9999,-9999.0,North,12.7,-,N/A,,Unknown,360,2012-11-06 16:28:00
10:48 AM,59.0,35.1,41,-9999,-9999.0,North,11.5,-,N/A,,Unknown,360,2012-11-06 16:48:00
11:08 AM,60.1,36.1,41,-9999,-9999.0,North,9.2,-,N/A,,Unknown,10,2012-11-06 17:08:00
11:28 AM,62.1,37.0,39,-9999,-9999.0,NNE,12.7,-,N/A,,Unknown,30,2012-11-06 17:28:00
11:48 AM,63.0,38.1,40,-9999,-9999.0,NNE,11.5,-,N/A,,Unknown,30,2012-11-06 17:48:00
12:08 PM,64.0,39.0,40,-9999,-9999.0,NE,9.2,-,N/A,,Unknown,40,2012-11-06 18:08:00
12:28 PM,64.9,38.1,37,-9999,-9999.0,North,10.4,-,N/A,,Unknown,10,2012-11-06 18:28:00
12:48 PM,66.0,38.1,36,-9999,-9999.0,NE,8.1,-,N/A,,Unknown,40,2012-11-06 18:48:00
1:08 PM,66.0,38.1,36,-9999,-9999.0,NNE,5.8,-,N/A,,Unknown,30,2012-11-06 19:08:00
1:28 PM,66.9,39.0,36,-9999,-9999.0,NNE,9.2,-,N/A,,Unknown,30,2012-11-06 19:28:00
1:48 PM,66.9,39.0,36,-9999,-9999.0,North,4.6,-,N/A,,Unknown,10,2012-11-06 19:48:00
2:08 PM,66.9,38.1,35,-9999,-9999.0,NE,8.1,-,N/A,,Unknown,40,2012-11-06 20:08:00
2:28 PM,66.9,39.0,36,-9999,-9999.0,NNW,1.2,-,N/A,,Unknown,340,2012-11-06 20:28:00
2:48 PM,66.9,38.1,35,-9999,-9999.0,North,2.3,-,N/A,,Unknown,360,2012-11-06 20:48:00
3:08 PM,68.0,38.1,33,-9999,-9999.0,NNE,4.6,-,N/A,,Unknown,20,2012-11-06 21:08:00
3:28 PM,68.0,38.1,33,-9999,-9999.0,NE,4.6,-,N/A,,Unknown,50,2012-11-06 21:28:00
3:48 PM,68.0,39.0,35,-9999,-9999.0,NNE,2.3,-,N/A,,Unknown,30,2012-11-06 21:48:00
4:08 PM,68.0,39.0,35,-9999,-9999.0,WNW,2.3,-,N/A,,Unknown,290,2012-11-06 22:08:00
4:28 PM,66.9,37.0,33,-9999,-9999.0,North,3.5,-,N/A,,Unknown,350,2012-11-06 22:28:00
4:50 PM,66.9,38.1,35,-9999,-9999.0,Calm,Calm,-,N/A,,Unknown,0,2012-11-06 22:50:00
5:08 PM,66.0,38.1,36,-9999,-9999.0,ESE,3.5,-,N/A,,Unknown,110,2012-11-06 23:08:00
5:28 PM,62.1,38.1,41,-9999,-9999.0,SE,2.3,-,N/A,,Unknown,130,2012-11-06 23:28:00
5:49 PM,60.1,35.1,39,-9999,-9999.0,SE,2.3,-,N/A,,Unknown,140,2012-11-06 23:49:00
6:08 PM,59.0,34.2,39,-9999,-9999.0,SE,3.5,-,N/A,,Unknown,140,2012-11-07 00:08:00
6:28 PM,57.0,34.2,42,-9999,-9999.0,SSE,3.5,-,N/A,,Unknown,150,2012-11-07 00:28:00
6:48 PM,55.9,33.1,42,-9999,-9999.0,SE,4.6,-,N/A,,Unknown,130,2012-11-07 00:48:00
7:08 PM,54.0,33.1,45,-9999,-9999.0,ESE,4.6,-,N/A,,Unknown,120,2012-11-07 01:08:00
7:28 PM,53.1,32.2,45,-9999,-9999.0,SE,5.8,-,N/A,,Unknown,140,2012-11-07 01:28:00
7:48 PM,53.1,32.2,45,-9999,-9999.0,SE,5.8,-,N/A,,Unknown,130,2012-11-07 01:48:00
8:08 PM,52.0,32.2,47,-9999,-9999.0,SE,6.9,-,N/A,,Unknown,130,2012-11-07 02:08:00
8:28 PM,53.1,33.1,47,-9999,-9999.0,SE,6.9,-,N/A,,Unknown,140,2012-11-07 02:28:00
8:48 PM,53.1,33.1,47,-9999,-9999.0,SSE,5.8,-,N/A,,Unknown,150,2012-11-07 02:48:00
9:08 PM,53.1,33.1,47,-9999,-9999.0,SSE,5.8,-,N/A,,Unknown,150,2012-11-07 03:08:00
9:28 PM,52.0,33.1,49,-9999,-9999.0,SE,6.9,-,N/A,,Unknown,140,2012-11-07 03:28:00
9:48 PM,53.1,33.1,47,-9999,-9999.0,South,6.9,-,N/A,,Unknown,170,2012-11-07 03:48:00
10:08 PM,54.0,33.1,45,-9999,-9999.0,South,6.9,-,N/A,,Unknown,170,2012-11-07 04:08:00
10:28 PM,54.0,33.1,45,-9999,-9999.0,South,6.9,-,N/A,,Unknown,180,2012-11-07 04:28:00
10:48 PM,54.0,32.2,44,-9999,-9999.0,South,6.9,-,N/A,,Unknown,190,2012-11-07 04:48:00
11:08 PM,54.0,32.2,44,-9999,-9999.0,South,6.9,-,N/A,,Unknown,190,2012-11-07 05:08:00
11:28 PM,53.1,32.2,45,-9999,-9999.0,South,6.9,-,N/A,,Unknown,190,2012-11-07 05:28:00
11:48 PM,54.0,32.2,44,-9999,-9999.0,South,8.1,-,N/A,,Unknown,180,2012-11-07 05:48:00